createdAt,value
2018-07-23T10:22:31.649Z,40.51
2018-07-23T10:23:35.225Z,40.38
2018-07-23T10:24:38.328Z,42.44
2018-07-23T10:25:41.174Z,41.87
2018-07-23T10:26:44.392Z,43.87
2018-07-23T10:27:49.797Z,44.21
2018-07-23T10:28:56.804Z,44.28
2018-07-23T10:30:00.498Z,44.85
2018-07-23T10:31:04.494Z,45.85
2018-07-23T10:32:08.077Z,46.04
2018-07-23T10:33:11.055Z,45.42
2018-07-23T10:34:15.055Z,45.52
2018-07-23T10:35:19.628Z,46.29
2018-07-23T10:36:22.637Z,45.04
2018-07-23T10:37:26.682Z,45.59
2018-07-23T10:38:31.950Z,44.55
2018-07-23T10:39:35.390Z,44.33
2018-07-23T10:40:38.689Z,43.98
2018-07-23T10:41:41.929Z,44.39
2018-07-23T10:42:44.841Z,43.96
2018-07-23T10:43:47.706Z,42.71
2018-07-23T10:44:55.526Z,42.34
2018-07-23T10:46:02.525Z,43.16
2018-07-23T10:47:05.796Z,44.04
2018-07-23T10:48:11.399Z,43.72
2018-07-23T10:49:24.694Z,43.31
2018-07-23T10:50:28.261Z,43.53
2018-07-23T10:51:31.409Z,44.10
2018-07-23T10:52:37.405Z,45.12
2018-07-23T10:53:44.397Z,45.20
2018-07-23T10:54:49.426Z,45.18
2018-07-23T10:55:54.720Z,46.48
2018-07-23T10:56:59.628Z,46.66
2018-07-23T10:58:05.610Z,46.24
2018-07-23T10:59:13.754Z,46.14
2018-07-23T11:00:18.839Z,45.44
2018-07-23T11:01:24.883Z,44.97
2018-07-23T11:02:30.548Z,43.25
2018-07-23T11:03:36.524Z,44.11
2018-07-23T11:04:42.360Z,43.31
2018-07-23T11:05:52.000Z,43.99
2018-07-23T11:07:03.149Z,44.33
2018-07-23T11:08:10.809Z,43.76
2018-07-23T11:09:17.466Z,43.38
2018-07-23T11:10:23.865Z,42.50
2018-07-23T11:11:31.406Z,42.67
2018-07-23T11:12:37.768Z,45.78
2018-07-23T11:13:42.580Z,45.38
2018-07-23T11:14:47.330Z,44.75
2018-07-23T11:15:50.913Z,43.14
2018-07-23T11:16:54.187Z,42.66
2018-07-23T11:17:58.070Z,42.10
2018-07-23T11:19:02.719Z,41.68
2018-07-23T11:20:05.558Z,42.33
2018-07-23T11:21:09.338Z,43.09
2018-07-23T11:22:12.218Z,43.46
2018-07-23T11:23:16.611Z,43.76
2018-07-23T11:24:20.453Z,43.91
2018-07-23T11:25:40.902Z,42.97
2018-07-23T11:26:34.237Z,42.90
2018-07-23T11:27:39.495Z,42.36
2018-07-23T11:28:44.102Z,41.44
2018-07-23T11:29:47.164Z,42.04
2018-07-23T11:30:51.394Z,41.92
2018-07-23T11:31:58.855Z,41.30
2018-07-23T11:33:03.171Z,42.23
2018-07-23T11:34:07.673Z,43.18
2018-07-23T11:35:15.830Z,43.98
2018-07-23T11:36:18.856Z,43.58
2018-07-23T11:37:22.474Z,43.19
2018-07-23T11:38:25.782Z,42.26
2018-07-23T11:39:28.997Z,43.80
2018-07-23T11:40:36.810Z,42.80
2018-07-23T11:41:40.595Z,43.36
2018-07-23T11:42:44.735Z,43.46
2018-07-23T11:43:47.670Z,43.88
2018-07-23T11:44:51.968Z,43.96
2018-07-23T11:45:54.845Z,43.44
2018-07-23T11:47:04.042Z,43.11
2018-07-23T11:48:09.673Z,43.81
2018-07-23T11:49:15.128Z,44.49
2018-07-23T11:50:19.596Z,44.26
2018-07-23T11:51:24.680Z,44.67
2018-07-23T11:52:29.237Z,43.66
2018-07-23T11:53:32.141Z,44.86
2018-07-23T11:54:37.058Z,45.49
2018-07-23T11:55:40.553Z,44.92
2018-07-23T11:56:44.454Z,43.89
2018-07-23T11:57:48.058Z,45.03
2018-07-23T11:58:52.791Z,44.29
2018-07-23T11:59:57.044Z,44.38
2018-07-23T12:01:02.340Z,44.01
2018-07-23T12:02:05.834Z,45.16
2018-07-23T12:03:12.133Z,43.43
2018-07-23T12:04:16.230Z,42.71
2018-07-23T12:05:20.489Z,42.98
2018-07-23T12:06:23.467Z,42.62
2018-07-23T12:07:26.378Z,42.02
2018-07-23T12:08:31.588Z,42.14
2018-07-23T12:09:35.381Z,41.68
2018-07-23T12:10:38.330Z,40.57
2018-07-23T12:11:41.636Z,39.00
2018-07-23T12:12:44.478Z,39.45
2018-07-23T12:13:47.344Z,40.54
2018-07-23T12:14:56.717Z,40.86
2018-07-23T12:15:59.833Z,40.73
2018-07-23T12:17:05.207Z,40.89
2018-07-23T12:18:08.306Z,39.61
2018-07-23T12:19:12.700Z,41.52
2018-07-23T12:20:17.933Z,40.53
2018-07-23T12:21:21.397Z,41.37
2018-07-23T12:22:26.509Z,42.47
2018-07-23T12:23:29.421Z,42.58
2018-07-23T12:24:35.697Z,41.06
2018-07-23T12:25:40.100Z,40.30
2018-07-23T12:26:45.118Z,41.63
2018-07-23T12:27:48.410Z,41.80
2018-07-23T12:28:51.388Z,41.02
2018-07-23T12:29:54.306Z,40.02
2018-07-23T12:30:57.201Z,40.37
2018-07-23T12:32:00.064Z,39.22
2018-07-23T12:33:04.626Z,39.36
2018-07-23T12:34:10.457Z,39.49
2018-07-23T12:35:15.377Z,38.13
2018-07-23T12:36:18.952Z,40.02
2018-07-23T12:37:22.255Z,41.47
2018-07-23T12:38:25.110Z,39.71
2018-07-23T12:39:28.042Z,40.13
2018-07-23T12:40:36.493Z,39.17
2018-07-23T12:41:39.797Z,39.06
2018-07-23T12:42:42.757Z,39.04
2018-07-23T12:43:46.264Z,37.95
2018-07-23T12:44:49.433Z,37.94
2018-07-23T12:45:52.336Z,37.01
2018-07-23T12:46:55.476Z,36.78
2018-07-23T12:48:59.889Z,36.83
2018-07-23T12:50:03.110Z,37.58
2018-07-23T12:51:06.295Z,38.49
2018-07-23T12:52:11.029Z,38.27
2018-07-23T12:53:17.996Z,37.33
2018-07-23T12:54:21.406Z,38.44
2018-07-23T12:55:26.668Z,37.35
2018-07-23T12:56:30.504Z,36.75
2018-07-23T12:57:33.632Z,37.47
2018-07-23T12:58:36.756Z,36.90
2018-07-23T12:59:40.447Z,37.55
2018-07-23T13:00:43.798Z,37.99
2018-07-23T13:01:47.462Z,37.88
2018-07-23T13:02:50.466Z,38.46
2018-07-23T13:03:53.587Z,37.25
2018-07-23T13:04:56.532Z,36.70
2018-07-23T13:05:59.740Z,38.58
2018-07-23T13:07:02.821Z,37.79
2018-07-23T13:08:06.325Z,39.54
2018-07-23T13:09:09.916Z,40.49
2018-07-23T13:11:27.134Z,40.71
2018-07-23T13:12:30.667Z,41.66
2018-07-23T13:13:34.356Z,41.14
2018-07-23T13:14:38.236Z,40.23
2018-07-23T13:15:41.113Z,40.47
2018-07-23T13:16:44.399Z,39.33
2018-07-23T13:17:47.252Z,38.84
2018-07-23T13:18:51.549Z,40.18
2018-07-23T13:19:54.465Z,39.52
2018-07-23T13:20:57.395Z,38.88
2018-07-23T13:22:01.096Z,38.67
2018-07-23T13:23:04.479Z,38.83
2018-07-23T13:25:20.563Z,36.53
2018-07-23T13:26:23.524Z,36.63
2018-07-23T13:27:33.139Z,36.07
2018-07-23T13:28:36.463Z,36.39
2018-07-23T13:29:39.562Z,35.94
2018-07-23T13:30:46.611Z,36.07
2018-07-23T13:31:49.700Z,36.98
2018-07-23T13:32:52.615Z,37.69
2018-07-23T13:33:55.530Z,38.44
2018-07-23T13:34:58.492Z,39.01
2018-07-23T13:36:02.691Z,39.66
2018-07-23T13:37:06.893Z,38.85
2018-07-23T13:38:10.453Z,39.36
2018-07-23T13:39:14.734Z,38.96
2018-07-23T13:40:25.355Z,38.29
2018-07-23T13:41:28.250Z,38.10
2018-07-23T13:42:31.976Z,38.02
2018-07-23T13:43:36.767Z,39.29
2018-07-23T13:44:43.467Z,39.90
2018-07-23T13:45:46.516Z,38.46
2018-07-23T13:46:50.155Z,39.72
2018-07-23T13:47:53.745Z,40.09
2018-07-23T13:48:56.639Z,38.83
2018-07-23T13:50:00.117Z,38.99
2018-07-23T13:51:03.082Z,37.96
2018-07-23T13:52:06.978Z,38.08
2018-07-23T13:53:09.815Z,37.12
2018-07-23T13:54:13.849Z,37.68
2018-07-23T13:55:17.502Z,37.66
2018-07-23T13:56:20.985Z,36.61
2018-07-23T13:57:23.913Z,35.39
2018-07-23T13:58:30.167Z,35.02
2018-07-23T13:59:35.525Z,34.27
2018-07-23T14:00:39.369Z,33.36
2018-07-23T14:01:44.372Z,33.78
2018-07-23T14:02:48.860Z,33.24
2018-07-23T14:03:53.127Z,33.20
2018-07-23T14:04:58.081Z,32.35
2018-07-23T14:06:02.069Z,31.58
2018-07-23T14:07:07.487Z,32.75
2018-07-23T14:08:12.279Z,32.50
2018-07-23T14:09:16.593Z,31.37
2018-07-23T14:10:19.590Z,32.07
2018-07-23T14:11:22.615Z,31.27
2018-07-23T14:12:25.474Z,31.40
2018-07-23T14:13:28.358Z,31.10
2018-07-23T14:14:31.992Z,32.02
2018-07-23T14:16:55.354Z,33.39
2018-07-23T14:19:12.679Z,34.96
2018-07-23T14:20:23.315Z,34.57
2018-07-23T14:22:43.359Z,33.18
2018-07-23T14:23:48.079Z,32.89
2018-07-23T14:24:50.926Z,32.87
2018-07-23T14:25:55.110Z,30.94
2018-07-23T14:27:02.766Z,31.40
2018-07-23T14:28:10.421Z,33.12
2018-07-23T14:29:14.401Z,33.69
2018-07-23T14:30:17.485Z,34.14
2018-07-23T14:31:20.510Z,34.70
2018-07-23T15:01:19.405Z,29.41
2018-07-23T15:02:22.343Z,28.08
2018-07-23T15:03:25.660Z,28.40
2018-07-23T15:04:28.614Z,27.26
2018-07-23T15:05:32.148Z,27.06
2018-07-23T15:06:38.094Z,25.98
2018-07-23T15:07:45.337Z,26.41
2018-07-23T15:08:49.353Z,25.68
2018-07-23T15:09:53.504Z,25.50
2018-07-23T15:10:56.653Z,25.67
2018-07-23T15:11:59.650Z,26.88
2018-07-23T15:13:05.256Z,25.93
2018-07-23T15:14:08.259Z,28.74
2018-07-23T15:15:11.253Z,29.52
2018-07-23T15:16:14.251Z,29.67
2018-07-23T15:17:17.144Z,28.84
2018-07-23T15:18:20.193Z,31.11
2018-07-23T15:19:24.413Z,29.91
2018-07-23T15:20:27.375Z,29.36
2018-07-23T15:21:31.285Z,30.37
2018-07-23T15:22:35.187Z,28.50
2018-07-23T15:23:38.249Z,30.38
2018-07-23T15:24:44.497Z,31.08
2018-07-23T15:25:49.856Z,29.63
2018-07-23T15:26:52.765Z,27.90
2018-07-23T15:27:55.975Z,28.18
2018-07-23T15:28:58.961Z,27.37
2018-07-23T15:30:05.472Z,26.79
2018-07-23T15:31:09.727Z,25.71
2018-07-23T15:32:13.038Z,26.09
2018-07-23T15:33:16.468Z,25.68
2018-07-23T15:34:20.800Z,26.12
2018-07-23T15:35:24.356Z,28.06
2018-07-23T15:36:27.706Z,28.53
2018-07-23T15:37:31.444Z,29.88
2018-07-23T15:38:34.737Z,29.02
2018-07-23T15:39:37.747Z,29.52
2018-07-23T15:40:45.959Z,28.92
2018-07-23T15:41:51.870Z,28.09
2018-07-23T15:44:15.690Z,26.26
2018-07-23T15:45:18.867Z,25.45
2018-07-23T15:46:22.128Z,26.82
2018-07-23T15:47:32.670Z,27.32
2018-07-23T15:48:40.969Z,26.32
2018-07-23T15:49:44.026Z,26.73
2018-07-23T15:50:51.883Z,26.12
2018-07-23T15:51:56.603Z,27.49
2018-07-23T15:53:07.379Z,27.01
2018-07-23T15:54:11.955Z,27.80
2018-07-23T15:55:15.468Z,29.99
2018-07-23T15:56:21.181Z,30.60
2018-07-23T15:57:25.214Z,32.28
2018-07-23T15:58:31.643Z,32.62
2018-07-23T15:59:35.711Z,34.07
2018-07-23T16:00:48.315Z,34.76
2018-07-23T16:01:59.136Z,33.75
2018-07-23T16:03:03.599Z,34.61
2018-07-23T16:04:06.966Z,34.07
2018-07-23T16:05:11.442Z,35.05
2018-07-23T16:06:16.292Z,31.91
2018-07-23T16:07:27.233Z,31.49
2018-07-23T16:08:30.486Z,29.50
2018-07-23T16:09:35.049Z,28.34
2018-07-23T16:10:39.093Z,27.19
2018-07-23T16:11:43.818Z,26.02
2018-07-23T16:12:50.624Z,26.41
2018-07-23T16:13:53.812Z,28.35
2018-07-23T16:14:57.111Z,30.12
2018-07-23T16:16:05.277Z,32.85
2018-07-23T16:17:09.324Z,34.70
2018-07-23T16:18:12.199Z,34.43
2018-07-23T16:19:15.499Z,35.30
2018-07-23T16:20:19.824Z,34.81
2018-07-23T16:21:24.005Z,35.55
2018-07-23T16:22:28.563Z,34.41
2018-07-23T16:23:37.805Z,34.71
2018-07-23T16:28:52.683Z,35.57
2018-07-23T16:30:06.885Z,36.20
2018-07-23T16:31:11.611Z,36.16
2018-07-23T16:32:17.148Z,35.92
2018-07-23T16:33:26.816Z,36.48
2018-07-23T16:35:56.212Z,35.66
2018-07-23T16:37:07.597Z,36.05
2018-07-23T16:38:13.891Z,36.46
2018-07-23T16:39:20.374Z,35.73
2018-07-23T16:40:40.708Z,35.89
2018-07-23T16:42:02.597Z,36.28
2018-07-23T16:43:11.705Z,36.03
2018-07-23T16:44:23.112Z,36.26
2018-07-23T16:45:26.955Z,37.57
2018-07-23T16:46:31.041Z,36.62
2018-07-23T16:47:40.667Z,36.17
2018-07-23T16:49:03.876Z,35.74
2018-07-23T16:51:59.280Z,37.07
2018-07-23T16:53:14.958Z,37.05
2018-07-23T16:54:25.448Z,37.24
2018-07-23T16:55:30.493Z,36.75
2018-07-23T16:56:41.690Z,37.17
2018-07-23T16:57:46.309Z,36.70
2018-07-23T16:58:50.244Z,36.68
2018-07-23T16:59:57.920Z,37.04
2018-07-23T17:01:05.572Z,37.93
2018-07-23T17:02:09.973Z,37.03
2018-07-23T17:03:14.634Z,38.02
2018-07-23T17:04:18.956Z,37.87
2018-07-23T17:05:40.126Z,36.65
2018-07-23T17:06:46.581Z,37.54
2018-07-23T17:07:50.827Z,37.35
2018-07-23T17:08:57.550Z,38.15
2018-07-23T17:10:04.722Z,38.03
2018-07-23T17:11:09.525Z,38.13
2018-07-23T17:12:15.971Z,37.68
2018-07-23T17:13:25.097Z,37.64
2018-07-23T17:14:30.804Z,37.06
2018-07-23T17:15:36.813Z,37.88
2018-07-23T17:16:40.205Z,36.99
2018-07-23T17:17:45.582Z,37.38
2018-07-23T17:18:55.074Z,37.11
2018-07-23T17:20:04.674Z,37.64
2018-07-23T17:21:09.777Z,38.39
2018-07-23T17:22:13.673Z,37.86
2018-07-23T17:23:19.651Z,37.29
2018-07-23T17:25:38.986Z,37.79
2018-07-23T17:26:43.136Z,37.95
2018-07-23T17:27:47.302Z,36.79
2018-07-23T17:28:52.757Z,37.74
2018-07-23T17:29:58.136Z,37.12
2018-07-23T17:31:07.485Z,37.34
2018-07-23T17:32:24.597Z,37.23
2018-07-23T17:33:40.698Z,38.03
2018-07-23T17:34:54.626Z,37.64
2018-07-23T17:37:27.834Z,37.92
2018-07-23T17:38:37.268Z,37.65
2018-07-23T17:41:09.593Z,37.45
2018-07-23T17:48:31.459Z,38.01
2018-07-23T17:49:39.045Z,38.38
2018-07-23T17:50:55.678Z,38.40
2018-07-23T17:52:01.364Z,38.40
2018-07-23T17:53:14.836Z,37.34
2018-07-23T17:56:22.411Z,38.92
2018-07-23T18:03:20.826Z,39.59
2018-07-23T18:04:33.643Z,39.07
2018-07-23T18:05:48.179Z,38.86
2018-07-23T18:08:06.967Z,38.47
2018-07-23T18:09:14.475Z,38.40
2018-07-23T18:10:33.496Z,38.74
2018-07-23T18:11:40.754Z,38.54
2018-07-23T18:17:53.046Z,39.00
2018-07-23T18:18:59.888Z,39.18
2018-07-23T18:20:06.826Z,40.36
2018-07-23T18:21:15.056Z,40.00
2018-07-23T18:22:25.130Z,40.49
2018-07-23T18:23:28.659Z,40.25
2018-07-23T18:25:54.201Z,40.42
2018-07-23T18:28:12.606Z,40.71
2018-07-23T18:29:22.262Z,41.17
2018-07-23T18:31:40.184Z,40.30
2018-07-23T18:32:43.152Z,41.48
2018-07-23T18:33:49.844Z,40.22
2018-07-23T18:34:56.659Z,40.39
2018-07-23T18:36:00.752Z,41.39
2018-07-23T18:37:09.288Z,40.62
2018-07-23T18:38:16.456Z,40.77
2018-07-23T18:39:28.171Z,41.81
2018-07-23T18:40:33.994Z,41.56
2018-07-23T18:41:39.922Z,40.62
2018-07-23T18:42:44.866Z,41.06
2018-07-23T18:43:50.841Z,42.20
2018-07-23T18:44:56.888Z,41.25
2018-07-23T18:46:02.806Z,42.04
2018-07-23T18:47:10.471Z,41.13
2018-07-23T18:48:18.574Z,42.25
2018-07-23T18:49:25.838Z,42.29
2018-07-23T18:50:31.350Z,41.82
2018-07-23T18:51:41.786Z,42.13
2018-07-23T18:52:47.650Z,42.80
2018-07-23T18:53:53.467Z,42.57
2018-07-23T18:54:58.004Z,42.98
2018-07-23T18:56:01.222Z,42.12
2018-07-23T18:57:06.356Z,42.57
2018-07-23T18:58:10.181Z,43.31
2018-07-23T18:59:13.038Z,42.44
2018-07-23T19:00:15.874Z,43.30
2018-07-23T19:01:18.811Z,43.43
2018-07-23T19:02:22.055Z,42.98
2018-07-23T19:03:25.328Z,42.97
2018-07-23T19:04:28.420Z,44.05
2018-07-23T19:05:34.691Z,44.19
2018-07-23T19:06:37.839Z,44.02
2018-07-23T19:07:43.900Z,43.63
2018-07-23T19:08:49.044Z,44.27
2018-07-23T19:09:52.604Z,44.45
2018-07-23T19:10:55.713Z,44.87
2018-07-23T19:12:01.065Z,44.85
2018-07-23T19:13:07.857Z,44.04
2018-07-23T19:14:11.260Z,45.32
2018-07-23T19:15:16.329Z,44.83
2018-07-23T19:16:20.408Z,45.35
2018-07-23T19:17:23.265Z,44.80
2018-07-23T19:18:29.322Z,44.94
2018-07-23T19:19:35.860Z,44.88
2018-07-23T19:20:41.032Z,45.28
2018-07-23T19:22:58.624Z,45.80
2018-07-23T19:24:01.849Z,45.86
2018-07-23T19:25:04.828Z,45.16
2018-07-23T19:26:08.155Z,45.23
2018-07-23T19:27:11.508Z,44.91
2018-07-23T19:28:14.809Z,45.69
2018-07-23T19:29:22.675Z,45.85
2018-07-23T19:30:25.790Z,45.93
2018-07-23T19:31:29.508Z,45.40
2018-07-23T19:32:32.343Z,45.47
2018-07-23T19:33:35.773Z,46.00
2018-07-23T20:06:07.238Z,47.78
2018-07-23T20:07:10.493Z,47.60
2018-07-23T20:08:13.820Z,46.85
2018-07-23T20:09:18.076Z,47.79
2018-07-23T20:10:22.980Z,47.24
2018-07-23T20:11:28.224Z,47.94
2018-07-23T20:12:34.662Z,47.88
2018-07-23T20:14:49.955Z,47.68
2018-07-23T20:15:58.187Z,47.53
2018-07-23T20:19:37.333Z,48.98
2018-07-23T20:20:42.459Z,49.62
2018-07-23T20:21:45.845Z,50.33
2018-07-23T20:22:57.293Z,49.79
2018-07-23T20:29:32.225Z,50.08
2018-07-23T20:30:35.162Z,50.43
2018-07-23T20:31:38.217Z,50.25
2018-07-23T20:32:42.037Z,49.90
2018-07-23T20:33:47.243Z,49.89
2018-07-23T20:35:04.032Z,50.05
2018-07-23T20:36:08.213Z,50.33
2018-07-23T20:37:19.340Z,50.10
2018-07-23T20:38:23.316Z,50.44
2018-07-23T20:39:27.352Z,51.35
2018-07-23T20:40:30.524Z,50.70
2018-07-23T20:41:33.694Z,51.69
2018-07-23T20:42:38.349Z,51.02
2018-07-23T20:43:42.598Z,51.14
2018-07-23T20:44:45.572Z,51.86
2018-07-23T20:45:49.147Z,51.50
2018-07-23T20:46:52.271Z,50.78
2018-07-23T20:47:55.647Z,51.55
2018-07-23T20:48:59.336Z,50.91
2018-07-23T20:50:02.568Z,51.07
2018-07-23T20:51:05.591Z,52.19
2018-07-23T20:52:09.487Z,51.87
2018-07-23T20:53:12.914Z,52.88
2018-07-23T20:54:19.692Z,53.11
2018-07-23T20:55:23.340Z,53.71
2018-07-23T20:56:26.639Z,54.66
2018-07-23T20:57:30.688Z,54.75
2018-07-23T20:58:35.402Z,54.14
2018-07-23T20:59:38.552Z,54.81
2018-07-23T21:00:41.696Z,54.62
2018-07-23T21:01:44.571Z,53.76
2018-07-23T21:02:48.492Z,53.99
2018-07-23T21:03:52.792Z,54.63
2018-07-23T21:04:55.848Z,53.67
2018-07-23T21:05:59.868Z,54.22
2018-07-23T21:07:03.331Z,54.38
2018-07-23T21:08:06.511Z,54.51
2018-07-23T21:09:10.570Z,53.76
2018-07-23T21:10:14.302Z,53.86
2018-07-23T21:11:18.611Z,54.63
2018-07-23T21:12:24.535Z,54.19
2018-07-23T21:13:27.640Z,54.76
2018-07-23T21:14:31.138Z,55.23
2018-07-23T21:15:36.309Z,55.26
2018-07-23T21:16:43.534Z,55.25
2018-07-23T21:17:46.507Z,55.47
2018-07-23T21:18:50.130Z,55.24
2018-07-23T21:19:54.546Z,56.21
2018-07-23T21:20:59.192Z,55.96
2018-07-23T21:22:02.371Z,55.69
2018-07-23T21:23:07.807Z,56.85
2018-07-23T21:24:16.579Z,56.79
2018-07-23T21:25:22.567Z,55.78
2018-07-23T21:26:25.385Z,56.36
2018-07-23T21:27:28.857Z,55.84
2018-07-23T21:28:33.777Z,56.50
2018-07-23T21:29:37.610Z,55.36
2018-07-23T21:30:41.573Z,56.65
2018-07-23T21:31:45.001Z,56.50
2018-07-23T21:32:49.162Z,56.75
2018-07-23T21:33:52.466Z,56.07
2018-07-23T21:34:59.577Z,57.24
2018-07-23T21:36:08.368Z,57.34
2018-07-23T21:37:16.553Z,57.01
2018-07-23T21:38:21.636Z,57.43
2018-07-23T21:43:12.235Z,57.60
2018-07-23T21:44:22.742Z,57.38
2018-07-23T21:51:03.572Z,57.60
2018-07-23T21:52:08.273Z,57.97
2018-07-23T21:54:30.235Z,57.99
2018-07-23T21:56:49.015Z,57.52
2018-07-23T21:57:52.552Z,56.94
2018-07-23T21:58:57.141Z,56.92
2018-07-23T22:00:01.247Z,57.42
2018-07-23T22:01:06.436Z,57.87
2018-07-23T22:07:11.131Z,58.17
2018-07-23T23:21:42.838Z,63.61
2018-07-23T23:22:45.834Z,63.40
2018-07-23T23:31:14.696Z,64.03
2018-07-23T23:32:20.351Z,64.09
2018-07-23T23:33:25.313Z,64.39
2018-07-23T23:34:31.690Z,64.13
2018-07-23T23:35:35.585Z,64.14
2018-07-23T23:36:39.825Z,64.50
2018-07-23T23:37:51.789Z,64.21
2018-07-23T23:38:54.799Z,64.63
2018-07-23T23:39:58.160Z,64.66
2018-07-23T23:41:02.432Z,64.83
2018-07-23T23:42:05.987Z,64.63
2018-07-23T23:43:10.190Z,65.18
2018-07-23T23:45:28.832Z,65.06
2018-07-23T23:46:32.567Z,65.98
2018-07-23T23:47:35.711Z,66.05
2018-07-23T23:48:42.107Z,66.11
2018-07-23T23:49:45.014Z,66.42
2018-07-23T23:50:57.692Z,66.20
2018-07-23T23:52:03.065Z,66.33
2018-07-23T23:53:10.394Z,66.35
2018-07-23T23:54:16.919Z,65.79
2018-07-23T23:55:21.148Z,65.75
2018-07-23T23:56:24.653Z,65.86
2018-07-23T23:57:27.999Z,65.61
2018-07-23T23:58:31.175Z,65.71
2018-07-23T23:59:35.090Z,65.19
